createdAt,value
2018-08-23T00:01:26.848Z,93.20
2018-08-23T00:03:56.779Z,93.20
2018-08-23T00:06:25.404Z,93.30
2018-08-23T00:08:53.876Z,93.40
2018-08-23T00:11:23.136Z,93.50
2018-08-23T00:13:51.718Z,93.70
2018-08-23T00:16:36.082Z,93.50
2018-08-23T00:19:04.895Z,93.50
2018-08-23T00:21:37.840Z,93.60
2018-08-23T00:24:09.391Z,93.70
2018-08-23T00:26:38.908Z,93.70
2018-08-23T00:29:13.605Z,93.80
2018-08-23T00:31:42.106Z,93.90
2018-08-23T00:34:11.303Z,94.30
2018-08-23T00:36:40.706Z,94.00
2018-08-23T00:39:10.001Z,94.10
2018-08-23T00:41:38.652Z,94.10
2018-08-23T00:44:07.115Z,94.30
2018-08-23T00:46:35.792Z,94.00
2018-08-23T00:49:04.243Z,93.90
2018-08-23T00:51:36.312Z,94.10
2018-08-23T00:54:05.050Z,94.00
2018-08-23T00:56:33.813Z,94.30
2018-08-23T00:59:03.219Z,94.40
2018-08-23T01:01:32.658Z,94.60
2018-08-23T01:04:01.205Z,94.40
2018-08-23T01:06:43.443Z,94.20
2018-08-23T01:09:12.855Z,94.10
2018-08-23T01:11:41.249Z,94.30
2018-08-23T01:14:10.097Z,94.40
2018-08-23T01:16:39.678Z,94.40
2018-08-23T01:19:13.380Z,94.70
2018-08-23T01:21:45.717Z,94.60
2018-08-23T01:24:14.288Z,94.70
2018-08-23T01:26:43.061Z,95.10
2018-08-23T01:29:25.706Z,94.60
2018-08-23T01:31:54.637Z,94.80
2018-08-23T01:34:22.983Z,94.60
2018-08-23T01:36:51.420Z,94.90
2018-08-23T01:39:24.393Z,94.60
2018-08-23T01:41:55.706Z,94.70
2018-08-23T01:44:29.755Z,95.00
2018-08-23T01:46:59.870Z,94.80
2018-08-23T01:49:29.159Z,95.00
2018-08-23T01:51:58.172Z,95.10
2018-08-23T01:54:29.973Z,95.40
2018-08-23T01:57:02.069Z,95.30
2018-08-23T01:59:36.865Z,95.10
2018-08-23T02:02:09.553Z,94.90
2018-08-23T02:04:38.112Z,95.30
2018-08-23T02:07:06.552Z,95.10
2018-08-23T02:09:34.899Z,95.10
2018-08-23T02:12:03.401Z,95.20
2018-08-23T02:14:37.011Z,95.30
2018-08-23T02:17:05.564Z,95.20
2018-08-23T02:19:39.400Z,95.10
2018-08-23T02:22:07.876Z,94.90
2018-08-23T02:24:36.418Z,95.20
2018-08-23T02:27:04.781Z,95.20
2018-08-23T02:29:40.507Z,95.30
2018-08-23T02:32:09.825Z,95.10
2018-08-23T02:34:42.568Z,95.40
2018-08-23T02:37:13.133Z,95.30
2018-08-23T02:39:42.594Z,95.40
2018-08-23T02:42:13.055Z,95.50
2018-08-23T02:44:42.159Z,95.40
2018-08-23T02:47:10.470Z,95.30
2018-08-23T02:49:39.499Z,95.60
2018-08-23T02:52:07.934Z,95.80
2018-08-23T02:54:43.169Z,95.80
2018-08-23T02:57:12.045Z,95.60
2018-08-23T02:59:40.461Z,95.40
2018-08-23T03:02:12.984Z,95.80
2018-08-23T03:04:41.444Z,95.80
2018-08-23T03:07:09.872Z,95.70
2018-08-23T03:09:39.569Z,95.50
2018-08-23T03:12:09.142Z,95.40
2018-08-23T03:14:37.616Z,95.20
2018-08-23T03:17:19.737Z,95.20
2018-08-23T03:20:15.303Z,95.10
2018-08-23T03:22:44.979Z,95.30
2018-08-23T03:25:14.676Z,95.30
2018-08-23T03:27:43.236Z,95.30
2018-08-23T03:30:12.787Z,95.40
2018-08-23T03:32:41.465Z,95.40
2018-08-23T03:35:09.915Z,95.40
2018-08-23T03:37:39.061Z,95.50
2018-08-23T03:40:07.831Z,95.50
2018-08-23T03:42:36.256Z,95.30
2018-08-23T03:45:04.794Z,95.40
2018-08-23T03:47:38.985Z,95.30
2018-08-23T03:50:08.314Z,95.80
2018-08-23T03:52:41.059Z,95.50
2018-08-23T03:55:10.672Z,95.80
2018-08-23T03:57:44.743Z,95.80
2018-08-23T04:00:13.162Z,95.60
2018-08-23T04:02:41.613Z,95.40
2018-08-23T04:05:15.883Z,95.20
2018-08-23T04:07:44.749Z,95.10
2018-08-23T04:10:13.058Z,95.20
2018-08-23T04:12:42.501Z,95.20
2018-08-23T04:15:30.209Z,95.10
2018-08-23T04:18:02.714Z,95.10
2018-08-23T04:20:31.133Z,95.10
2018-08-23T04:22:59.572Z,95.10
2018-08-23T04:25:27.828Z,95.40
2018-08-23T04:27:56.352Z,95.50
2018-08-23T04:30:24.806Z,95.70
2018-08-23T04:32:53.160Z,95.50
2018-08-23T04:35:24.457Z,95.30
2018-08-23T04:37:54.392Z,95.30
2018-08-23T04:40:22.700Z,95.20
2018-08-23T04:43:08.023Z,95.40
2018-08-23T04:45:36.551Z,95.50
2018-08-23T04:48:06.149Z,95.80
2018-08-23T04:50:40.410Z,96.00
2018-08-23T04:53:08.797Z,95.70
2018-08-23T04:55:37.499Z,95.60
2018-08-23T04:58:05.986Z,95.60
2018-08-23T05:00:34.473Z,95.50
2018-08-23T05:03:02.911Z,95.50
2018-08-23T05:05:31.234Z,95.20
2018-08-23T05:07:59.673Z,95.00
2018-08-23T05:10:27.978Z,95.00
2018-08-23T05:12:56.393Z,95.00
2018-08-23T05:15:24.761Z,95.10
2018-08-23T05:17:53.048Z,94.90
2018-08-23T05:20:21.442Z,94.90
2018-08-23T05:22:56.105Z,95.00
2018-08-23T05:25:25.092Z,95.20
2018-08-23T05:28:09.326Z,95.20
2018-08-23T05:30:37.717Z,95.50
2018-08-23T05:33:13.956Z,95.20
2018-08-23T05:35:42.660Z,95.20
2018-08-23T05:38:11.548Z,95.20
2018-08-23T05:40:48.759Z,95.20
2018-08-23T05:43:17.285Z,95.30
2018-08-23T05:45:48.049Z,95.20
2018-08-23T05:48:22.880Z,95.20
2018-08-23T05:50:51.659Z,95.30
2018-08-23T05:53:20.648Z,95.20
2018-08-23T05:55:52.218Z,95.40
2018-08-23T05:58:23.288Z,95.80
2018-08-23T06:00:51.871Z,95.30
2018-08-23T06:03:20.253Z,95.00
2018-08-23T06:05:49.244Z,94.90
2018-08-23T06:08:17.729Z,94.70
2018-08-23T06:10:48.200Z,95.10
2018-08-23T06:13:17.632Z,95.00
2018-08-23T06:15:56.209Z,94.90
2018-08-23T06:18:25.507Z,94.80
2018-08-23T06:20:53.928Z,94.80
2018-08-23T06:23:25.542Z,94.70
2018-08-23T06:25:53.929Z,94.60
2018-08-23T06:28:27.581Z,94.70
2018-08-23T06:30:57.313Z,94.60
2018-08-23T06:33:39.896Z,94.60
2018-08-23T06:36:09.926Z,94.50
2018-08-23T06:38:40.003Z,94.40
2018-08-23T06:41:08.930Z,94.40
2018-08-23T06:43:37.354Z,94.50
2018-08-23T06:46:06.039Z,94.50
2018-08-23T06:48:34.377Z,94.40
2018-08-23T06:51:03.833Z,94.20
2018-08-23T06:53:43.852Z,94.20
2018-08-23T06:56:12.215Z,94.20
2018-08-23T06:58:40.602Z,94.10
2018-08-23T07:01:14.284Z,94.00
2018-08-23T07:03:51.285Z,94.30
2018-08-23T07:06:20.133Z,94.20
2018-08-23T07:08:48.434Z,94.00
2018-08-23T07:11:23.532Z,94.20
2018-08-23T07:13:57.258Z,94.40
2018-08-23T07:16:26.144Z,94.20
2018-08-23T07:18:54.625Z,94.30
2018-08-23T07:21:23.012Z,94.00
2018-08-23T07:23:51.460Z,94.00
2018-08-23T07:26:19.891Z,94.00
2018-08-23T07:28:48.262Z,93.90
2018-08-23T07:31:16.588Z,93.90
2018-08-23T07:33:48.820Z,93.80
2018-08-23T07:36:30.338Z,93.80
2018-08-23T07:38:58.832Z,93.70
2018-08-23T07:41:27.377Z,94.00
2018-08-23T07:43:59.415Z,93.80
2018-08-23T07:46:27.760Z,93.90
2018-08-23T07:48:56.058Z,93.90
2018-08-23T07:51:25.637Z,93.80
2018-08-23T07:53:56.372Z,93.50
2018-08-23T07:56:28.795Z,93.60
2018-08-23T07:58:57.970Z,93.90
2018-08-23T08:01:41.250Z,93.30
2018-08-23T08:04:15.851Z,93.60
2018-08-23T08:06:52.527Z,93.30
2018-08-23T08:09:32.471Z,93.70
2018-08-23T08:12:16.617Z,93.20
2018-08-23T08:14:54.249Z,93.10
2018-08-23T08:17:32.618Z,92.90
2018-08-23T08:20:04.289Z,93.00
2018-08-23T08:22:33.366Z,92.80
2018-08-23T08:25:09.168Z,92.90
2018-08-23T08:27:50.553Z,92.80
2018-08-23T08:30:28.090Z,92.60
2018-08-23T08:32:56.404Z,92.90
2018-08-23T08:35:24.676Z,92.90
2018-08-23T08:37:53.013Z,92.80
2018-08-23T08:40:25.491Z,92.60
2018-08-23T08:42:53.750Z,92.90
2018-08-23T08:45:23.984Z,92.80
2018-08-23T08:47:52.312Z,92.70
2018-08-23T08:50:20.710Z,92.80
2018-08-23T08:52:49.831Z,93.10
2018-08-23T08:55:18.129Z,93.10
2018-08-23T08:57:47.429Z,92.90
2018-08-23T09:00:15.671Z,92.80
2018-08-23T09:02:44.068Z,93.30
2018-08-23T09:05:12.446Z,93.20
2018-08-23T09:07:42.986Z,93.20
2018-08-23T09:10:11.272Z,93.00
2018-08-23T09:12:45.116Z,92.90
2018-08-23T09:15:13.452Z,92.80
2018-08-23T09:17:44.334Z,92.60
2018-08-23T09:20:14.749Z,92.60
2018-08-23T09:22:51.584Z,92.40
2018-08-23T09:25:33.718Z,92.10
2018-08-23T09:28:02.176Z,91.30
2018-08-23T09:30:31.759Z,91.30
2018-08-23T09:33:05.536Z,90.80
2018-08-23T09:35:34.380Z,90.60
2018-08-23T09:38:14.364Z,91.20
2018-08-23T09:40:42.728Z,91.00
2018-08-23T09:43:11.030Z,91.10
2018-08-23T09:45:39.984Z,91.10
2018-08-23T09:48:08.469Z,91.00
2018-08-23T09:50:36.840Z,90.60
2018-08-23T09:53:11.015Z,90.50
2018-08-23T09:55:39.414Z,90.70
2018-08-23T09:58:11.932Z,90.80
2018-08-23T10:03:47.810Z,90.60
2018-08-23T10:06:23.881Z,90.80
2018-08-23T10:10:08.248Z,90.90
2018-08-23T10:12:43.768Z,90.90
2018-08-23T10:15:19.522Z,91.10
2018-08-23T10:17:59.043Z,91.10
2018-08-23T10:20:44.669Z,91.30
2018-08-23T10:23:22.003Z,90.90
2018-08-23T10:27:05.910Z,90.90
2018-08-23T10:29:34.564Z,91.40
2018-08-23T10:32:03.160Z,92.20
2018-08-23T10:34:31.616Z,92.00
2018-08-23T10:37:00.037Z,92.70
2018-08-23T10:39:28.468Z,92.90
2018-08-23T10:41:56.821Z,93.00
2018-08-23T10:44:25.140Z,93.20
2018-08-23T10:46:55.560Z,93.10
2018-08-23T10:49:24.316Z,93.00
2018-08-23T10:51:52.740Z,93.00
2018-08-23T10:54:23.309Z,92.60
2018-08-23T10:56:51.641Z,92.70
2018-08-23T10:59:19.949Z,92.80
2018-08-23T11:01:48.258Z,92.50
2018-08-23T11:04:19.839Z,92.10
2018-08-23T11:06:56.686Z,91.90
2018-08-23T11:09:31.282Z,91.90
2018-08-23T11:12:02.460Z,92.20
2018-08-23T11:14:36.261Z,91.80
2018-08-23T11:17:10.036Z,92.00
2018-08-23T11:19:43.590Z,91.50
2018-08-23T11:22:11.884Z,91.60
2018-08-23T11:24:40.421Z,91.20
2018-08-23T11:27:10.463Z,91.30
2018-08-23T11:29:38.912Z,89.90
2018-08-23T11:32:07.216Z,90.50
2018-08-23T11:34:35.565Z,90.10
2018-08-23T11:37:03.888Z,89.40
2018-08-23T11:39:32.231Z,89.60
2018-08-23T11:42:00.552Z,88.60
2018-08-23T11:44:28.906Z,89.20
2018-08-23T11:46:57.208Z,88.30
2018-08-23T11:49:25.548Z,87.90
2018-08-23T11:51:53.912Z,85.60
2018-08-23T11:54:22.233Z,85.80
2018-08-23T11:56:50.624Z,86.30
2018-08-23T11:59:18.959Z,86.20
2018-08-23T12:01:47.278Z,86.30
2018-08-23T12:04:15.629Z,85.60
2018-08-23T12:06:44.005Z,84.30
2018-08-23T12:09:12.332Z,84.30
2018-08-23T12:11:40.655Z,82.50
2018-08-23T12:14:09.020Z,83.30
2018-08-23T12:16:37.363Z,82.60
2018-08-23T12:19:05.862Z,82.90
2018-08-23T12:21:34.146Z,82.10
2018-08-23T12:24:02.570Z,81.50
2018-08-23T12:26:30.936Z,81.80
2018-08-23T12:29:04.660Z,80.50
2018-08-23T12:31:33.075Z,80.00
2018-08-23T12:34:04.351Z,80.30
2018-08-23T12:36:38.064Z,80.80
2018-08-23T12:39:14.239Z,81.00
2018-08-23T12:41:48.939Z,80.50
2018-08-23T12:44:18.000Z,80.30
2018-08-23T12:46:46.317Z,80.50
2018-08-23T12:49:14.660Z,79.70
2018-08-23T12:51:43.495Z,78.90
2018-08-23T12:54:11.780Z,80.10
2018-08-23T12:56:40.100Z,77.70
2018-08-23T12:59:08.396Z,79.70
2018-08-23T13:01:36.904Z,80.70
2018-08-23T13:04:05.258Z,80.70
2018-08-23T13:06:33.572Z,81.10
2018-08-23T13:09:01.926Z,80.00
2018-08-23T13:11:30.256Z,80.20
2018-08-23T13:13:58.597Z,79.50
2018-08-23T13:16:26.977Z,80.10
2018-08-23T13:18:55.372Z,80.30
2018-08-23T13:21:23.643Z,80.90
2018-08-23T13:23:52.172Z,81.30
2018-08-23T13:26:20.488Z,81.70
2018-08-23T13:28:48.796Z,80.70
2018-08-23T13:31:17.230Z,80.30
2018-08-23T13:33:45.480Z,81.30
2018-08-23T13:36:13.968Z,80.60
2018-08-23T13:38:42.251Z,80.70
2018-08-23T13:41:10.584Z,80.70
2018-08-23T13:43:39.080Z,81.40
2018-08-23T13:46:07.262Z,80.70
2018-08-23T13:48:35.718Z,80.60
2018-08-23T13:51:04.031Z,80.50
2018-08-23T13:53:32.303Z,79.70
2018-08-23T13:56:00.688Z,79.90
2018-08-23T13:58:29.036Z,79.90
2018-08-23T14:00:57.351Z,79.50
2018-08-23T14:03:25.665Z,80.00
2018-08-23T14:05:53.960Z,80.20
2018-08-23T14:08:22.287Z,79.00
2018-08-23T14:10:50.605Z,79.30
2018-08-23T14:13:18.961Z,79.10
2018-08-23T14:15:52.502Z,79.60
2018-08-23T14:18:20.792Z,79.10
2018-08-23T14:20:49.146Z,79.20
2018-08-23T14:23:17.572Z,79.60
2018-08-23T14:25:45.956Z,80.50
2018-08-23T14:28:14.349Z,80.40
2018-08-23T14:30:42.644Z,79.10
2018-08-23T14:33:11.014Z,78.60
2018-08-23T14:35:39.461Z,78.90
2018-08-23T14:38:07.757Z,78.80
2018-08-23T14:40:36.007Z,79.90
2018-08-23T14:43:04.552Z,79.60
2018-08-23T14:45:33.893Z,79.90
2018-08-23T14:48:07.717Z,80.20
2018-08-23T14:50:36.789Z,79.50
2018-08-23T14:53:06.002Z,79.60
2018-08-23T14:55:39.736Z,79.60
2018-08-23T14:58:09.044Z,79.20
2018-08-23T15:00:37.346Z,79.30
2018-08-23T15:03:06.019Z,79.00
2018-08-23T15:05:34.331Z,79.20
2018-08-23T15:08:02.747Z,79.30
2018-08-23T15:10:31.055Z,79.80
2018-08-23T15:12:59.398Z,80.40
2018-08-23T15:15:33.140Z,81.10
2018-08-23T15:18:01.392Z,81.40
2018-08-23T15:20:29.679Z,81.60
2018-08-23T15:22:58.954Z,80.70
2018-08-23T15:25:27.307Z,81.70
2018-08-23T15:27:55.612Z,81.80
2018-08-23T15:30:23.906Z,82.00
2018-08-23T15:32:52.257Z,81.80
2018-08-23T15:35:20.534Z,82.00
2018-08-23T15:37:48.840Z,81.70
2018-08-23T15:40:17.253Z,82.70
2018-08-23T15:42:45.544Z,82.50
2018-08-23T15:45:13.890Z,83.90
2018-08-23T15:47:42.196Z,84.00
2018-08-23T15:50:10.655Z,83.80
2018-08-23T15:52:39.069Z,84.30
2018-08-23T15:55:07.476Z,84.80
2018-08-23T15:57:35.763Z,85.10
2018-08-23T16:00:04.172Z,85.90
2018-08-23T16:02:32.480Z,86.70
2018-08-23T16:05:00.809Z,87.30
2018-08-23T16:07:29.137Z,87.20
2018-08-23T16:09:57.437Z,87.10
2018-08-23T16:12:25.736Z,87.00
2018-08-23T16:14:54.008Z,87.30
2018-08-23T16:17:27.738Z,87.70
2018-08-23T16:20:01.472Z,87.70
2018-08-23T16:22:29.757Z,87.90
2018-08-23T16:24:58.309Z,87.20
2018-08-23T16:27:26.569Z,87.60
2018-08-23T16:29:54.859Z,87.70
2018-08-23T16:32:28.549Z,87.80
2018-08-23T16:34:56.881Z,88.20
2018-08-23T16:37:25.248Z,88.40
2018-08-23T16:39:53.513Z,89.20
2018-08-23T16:42:21.880Z,90.50
2018-08-23T16:44:50.165Z,90.40
2018-08-23T16:47:18.625Z,90.80
2018-08-23T16:49:47.653Z,90.60
2018-08-23T16:52:15.949Z,91.00
2018-08-23T16:54:44.240Z,91.60
2018-08-23T16:57:12.547Z,92.60
2018-08-23T16:59:40.851Z,93.00
2018-08-23T17:02:09.200Z,93.10
2018-08-23T17:04:43.320Z,93.20
2018-08-23T17:07:15.517Z,93.10
2018-08-23T17:09:43.915Z,93.10
2018-08-23T17:12:12.253Z,93.40
2018-08-23T17:14:40.557Z,93.70
2018-08-23T17:17:14.279Z,93.90
2018-08-23T17:19:42.865Z,94.20
2018-08-23T17:22:11.710Z,94.30
2018-08-23T17:24:40.109Z,94.20
2018-08-23T17:27:08.311Z,94.00
2018-08-23T17:29:36.652Z,93.80
2018-08-23T17:32:04.987Z,93.90
2018-08-23T17:34:33.294Z,93.90
2018-08-23T17:37:01.633Z,94.10
2018-08-23T17:39:30.049Z,93.90
2018-08-23T17:42:05.225Z,94.00
2018-08-23T17:44:33.828Z,94.20
2018-08-23T17:47:02.710Z,94.60
2018-08-23T17:49:31.366Z,94.70
2018-08-23T17:51:59.896Z,94.60
2018-08-23T17:54:28.366Z,94.70
2018-08-23T17:56:56.908Z,94.70
2018-08-23T17:59:25.420Z,94.90
2018-08-23T18:01:53.849Z,95.30
2018-08-23T18:04:22.177Z,95.30
2018-08-23T18:06:50.664Z,95.70
2018-08-23T18:09:19.428Z,95.60
2018-08-23T18:11:48.138Z,95.60
2018-08-23T18:14:16.707Z,95.60
2018-08-23T18:16:50.944Z,96.00
2018-08-23T18:19:19.524Z,96.20
2018-08-23T18:21:48.229Z,96.30
2018-08-23T18:24:16.725Z,96.30
2018-08-23T18:26:45.424Z,96.20
2018-08-23T18:29:13.912Z,96.30
2018-08-23T18:31:42.512Z,96.60
2018-08-23T18:34:11.002Z,96.40
2018-08-23T18:36:39.541Z,96.50
2018-08-23T18:39:08.872Z,96.50
2018-08-23T18:41:37.374Z,96.40
2018-08-23T18:44:06.113Z,96.50
2018-08-23T18:46:34.614Z,96.70
2018-08-23T18:49:03.283Z,96.80
2018-08-23T18:51:32.272Z,96.60
2018-08-23T18:54:01.230Z,96.60
2018-08-23T18:56:30.198Z,97.00
2018-08-23T18:58:58.634Z,96.80
2018-08-23T19:01:27.148Z,97.30
2018-08-23T19:03:55.719Z,97.40
2018-08-23T19:06:29.456Z,97.20
2018-08-23T19:08:58.007Z,97.10
2018-08-23T19:11:26.504Z,96.90
2018-08-23T19:13:55.020Z,96.70
2018-08-23T19:16:28.836Z,96.60
2018-08-23T19:18:57.303Z,96.50
2018-08-23T19:21:25.728Z,96.10
2018-08-23T19:23:54.200Z,96.30
2018-08-23T19:26:22.599Z,96.20
2018-08-23T19:28:51.060Z,96.40
2018-08-23T19:31:19.668Z,96.00
2018-08-23T19:33:48.134Z,96.10
2018-08-23T19:36:16.706Z,96.00
2018-08-23T19:38:45.371Z,95.80
2018-08-23T19:41:13.886Z,95.70
2018-08-23T19:43:44.043Z,95.70
2018-08-23T19:46:17.822Z,95.90
2018-08-23T19:48:47.938Z,96.00
2018-08-23T19:51:16.561Z,95.90
2018-08-23T19:53:45.244Z,95.80
2018-08-23T19:56:13.860Z,95.70
2018-08-23T19:58:43.146Z,95.40
2018-08-23T20:01:11.696Z,95.70
2018-08-23T20:03:40.208Z,95.60
2018-08-23T20:06:08.992Z,95.50
2018-08-23T20:08:38.657Z,95.60
2018-08-23T20:11:07.660Z,95.70
2018-08-23T20:13:37.483Z,95.60
2018-08-23T20:16:06.688Z,96.00
2018-08-23T20:18:35.272Z,95.30
2018-08-23T20:21:03.918Z,95.30
2018-08-23T20:23:33.338Z,95.20
2018-08-23T20:26:02.331Z,95.20
2018-08-23T20:28:31.225Z,95.10
2018-08-23T20:30:59.989Z,95.10
2018-08-23T20:33:28.403Z,95.10
2018-08-23T20:35:57.305Z,95.00
2018-08-23T20:38:26.825Z,94.90
2018-08-23T20:40:55.477Z,95.10
2018-08-23T20:43:23.924Z,95.20
2018-08-23T20:45:53.545Z,94.80
2018-08-23T20:48:22.736Z,94.90
2018-08-23T20:50:51.277Z,94.80
2018-08-23T20:53:20.432Z,94.80
2018-08-23T20:55:49.073Z,94.60
2018-08-23T20:58:18.175Z,94.60
2018-08-23T21:00:46.741Z,94.50
2018-08-23T21:03:15.455Z,94.30
2018-08-23T21:05:45.066Z,94.20
2018-08-23T21:08:13.811Z,94.20
2018-08-23T21:10:42.760Z,94.20
2018-08-23T21:13:11.562Z,94.30
2018-08-23T21:15:41.914Z,94.40
2018-08-23T21:18:11.893Z,94.30
2018-08-23T21:20:41.721Z,94.40
2018-08-23T21:23:10.814Z,94.30
2018-08-23T21:25:39.920Z,94.30
2018-08-23T21:28:10.232Z,94.30
2018-08-23T21:30:39.225Z,94.40
2018-08-23T21:33:08.659Z,94.30
2018-08-23T21:35:37.709Z,94.50
2018-08-23T21:38:06.407Z,94.40
2018-08-23T21:40:35.466Z,94.30
2018-08-23T21:43:04.864Z,94.40
2018-08-23T21:45:33.656Z,94.40
2018-08-23T21:48:03.043Z,94.40
2018-08-23T21:50:31.868Z,94.40
2018-08-23T21:53:00.672Z,94.40
2018-08-23T21:55:37.561Z,94.50
2018-08-23T21:58:07.804Z,94.50
2018-08-23T22:00:42.323Z,94.60
2018-08-23T22:03:12.326Z,94.50
2018-08-23T22:05:42.242Z,94.50
2018-08-23T22:10:46.721Z,94.90
2018-08-23T22:13:15.554Z,94.60
2018-08-23T22:15:46.507Z,94.60
2018-08-23T22:18:16.651Z,94.70
2018-08-23T22:20:45.675Z,94.70
2018-08-23T22:23:14.940Z,94.80
2018-08-23T22:25:43.897Z,94.80
2018-08-23T22:28:13.198Z,94.80
2018-08-23T22:30:43.057Z,94.80
2018-08-23T22:33:12.927Z,94.70
2018-08-23T22:35:42.459Z,94.70
2018-08-23T22:38:11.459Z,94.70
2018-08-23T22:40:40.527Z,94.90
2018-08-23T22:43:09.753Z,94.80
2018-08-23T22:45:38.708Z,94.80
2018-08-23T22:51:20.637Z,94.80
2018-08-23T22:53:59.947Z,94.80
2018-08-23T22:56:29.032Z,94.90
2018-08-23T22:59:19.281Z,94.70
2018-08-23T23:07:32.449Z,94.90
2018-08-23T23:13:40.427Z,94.90
2018-08-23T23:16:11.494Z,94.90
2018-08-23T23:18:44.134Z,95.00
2018-08-23T23:21:12.686Z,94.90
2018-08-23T23:23:44.401Z,94.90
2018-08-23T23:26:13.010Z,95.10
2018-08-23T23:28:42.049Z,95.40
2018-08-23T23:31:10.825Z,95.20
2018-08-23T23:33:40.268Z,95.20
2018-08-23T23:36:09.214Z,95.10
2018-08-23T23:38:38.116Z,95.20
2018-08-23T23:41:07.172Z,95.20
2018-08-23T23:43:36.150Z,95.30
2018-08-23T23:46:04.915Z,95.20
2018-08-23T23:48:33.638Z,95.50
2018-08-23T23:51:02.505Z,95.10
2018-08-23T23:53:31.192Z,95.30
2018-08-23T23:56:00.417Z,95.20
2018-08-23T23:58:29.348Z,95.30
